createdAt,value
2023-01-11T00:02:34.020Z,3.83
2023-01-11T00:05:48.021Z,3.75
2023-01-11T00:08:54.120Z,3.75
2023-01-11T00:12:05.099Z,3.78
2023-01-11T00:15:10.405Z,3.79
2023-01-11T00:18:20.457Z,3.75
2023-01-11T00:21:23.849Z,3.77
2023-01-11T00:24:28.121Z,3.78
2023-01-11T00:27:33.211Z,3.72
2023-01-11T00:30:39.987Z,3.71
2023-01-11T00:33:44.982Z,3.80
2023-01-11T00:36:50.286Z,3.80
2023-01-11T00:39:55.016Z,3.77
2023-01-11T00:43:18.377Z,3.75
2023-01-11T00:46:41.421Z,3.78
2023-01-11T00:49:45.413Z,3.74
2023-01-11T00:52:49.759Z,3.71
2023-01-11T00:55:56.508Z,3.78
2023-01-11T00:59:02.262Z,3.78
2023-01-11T01:02:08.410Z,3.69
2023-01-11T01:05:15.976Z,3.65
2023-01-11T01:08:24.474Z,3.66
2023-01-11T01:11:30.610Z,3.67
2023-01-11T01:14:36.988Z,3.69
2023-01-11T01:17:44.693Z,3.66
2023-01-11T01:20:55.172Z,3.66
2023-01-11T01:23:59.480Z,3.66
2023-01-11T01:27:09.427Z,3.68
2023-01-11T01:30:18.482Z,3.66
2023-01-11T01:33:21.957Z,3.66
2023-01-11T01:36:24.985Z,3.63
2023-01-11T01:39:29.166Z,3.60
2023-01-11T01:42:36.361Z,3.60
2023-01-11T01:45:43.134Z,3.54
2023-01-11T01:48:52.597Z,3.53
2023-01-11T01:51:59.598Z,3.57
2023-01-11T01:55:10.976Z,3.51
2023-01-11T01:58:19.173Z,3.52
2023-01-11T02:01:41.686Z,3.57
2023-01-11T02:04:50.437Z,3.57
2023-01-11T02:07:58.852Z,3.52
2023-01-11T02:11:25.513Z,3.49
2023-01-11T02:14:34.445Z,3.48
2023-01-11T02:17:38.754Z,3.45
2023-01-11T02:20:54.516Z,3.44
2023-01-11T02:24:17.685Z,3.42
2023-01-11T02:27:37.933Z,3.39
2023-01-11T02:30:58.497Z,3.44
2023-01-11T02:34:42.131Z,3.38
2023-01-11T02:38:11.998Z,3.41
2023-01-11T02:42:22.765Z,3.36
2023-01-11T02:45:29.832Z,3.31
2023-01-11T02:49:04.084Z,3.33
2023-01-11T02:52:30.991Z,3.36
2023-01-11T02:55:53.897Z,3.35
2023-01-11T02:59:05.212Z,3.36
2023-01-11T03:02:10.347Z,3.39
2023-01-11T03:05:16.432Z,3.33
2023-01-11T03:08:37.217Z,3.33
2023-01-11T03:12:35.479Z,3.35
2023-01-11T03:16:08.252Z,3.34
2023-01-11T03:19:46.187Z,3.24
2023-01-11T03:23:23.314Z,3.22
2023-01-11T03:26:46.736Z,3.17
2023-01-11T03:29:54.350Z,3.08
2023-01-11T03:33:29.074Z,3.08
2023-01-11T03:37:12.907Z,3.04
2023-01-11T03:40:30.867Z,2.96
2023-01-11T03:43:55.959Z,2.88
2023-01-11T03:47:14.444Z,2.85
2023-01-11T03:50:21.210Z,2.82
2023-01-11T03:53:48.562Z,2.75
2023-01-11T03:57:12.029Z,2.72
2023-01-11T04:00:23.520Z,2.70
2023-01-11T04:03:29.088Z,2.67
2023-01-11T04:06:45.784Z,2.68
2023-01-11T04:10:03.857Z,2.67
2023-01-11T04:13:18.380Z,2.67
2023-01-11T04:16:25.219Z,2.77
2023-01-11T04:19:44.314Z,2.82
2023-01-11T04:22:51.636Z,2.76
2023-01-11T04:26:05.160Z,2.84
2023-01-11T04:32:39.122Z,2.97
2023-01-11T04:35:44.700Z,2.94
2023-01-11T04:38:58.688Z,2.89
2023-01-11T04:42:23.694Z,2.92
2023-01-11T04:45:42.487Z,3.03
2023-01-11T04:49:18.620Z,3.07
2023-01-11T04:52:29.882Z,3.00
2023-01-11T04:55:36.985Z,3.04
2023-01-11T04:58:42.571Z,2.97
2023-01-11T05:01:51.765Z,3.03
2023-01-11T05:05:04.070Z,3.02
2023-01-11T05:08:19.758Z,2.96
2023-01-11T05:11:32.781Z,2.89
2023-01-11T05:14:51.660Z,2.86
2023-01-11T05:17:57.825Z,2.76
2023-01-11T05:21:12.236Z,2.71
2023-01-11T05:24:31.038Z,2.71
2023-01-11T05:27:39.648Z,2.63
2023-01-11T05:30:45.787Z,2.63
2023-01-11T05:34:03.099Z,2.61
2023-01-11T05:37:12.320Z,2.53
2023-01-11T05:40:23.906Z,2.47
2023-01-11T05:47:20.213Z,2.39
2023-01-11T05:50:36.619Z,2.36
2023-01-11T05:53:45.750Z,2.34
2023-01-11T05:56:57.593Z,2.37
2023-01-11T06:00:09.338Z,2.43
2023-01-11T06:03:25.743Z,2.41
2023-01-11T06:06:38.599Z,2.35
2023-01-11T06:09:42.639Z,2.32
2023-01-11T06:13:25.627Z,2.41
2023-01-11T06:16:33.147Z,2.41
2023-01-11T06:19:46.223Z,2.44
2023-01-11T06:22:58.327Z,2.42
2023-01-11T06:26:06.640Z,2.45
2023-01-11T06:29:27.047Z,2.42
2023-01-11T06:32:43.766Z,2.41
2023-01-11T06:35:58.622Z,2.43
2023-01-11T06:39:05.023Z,2.46
2023-01-11T06:45:55.350Z,2.50
2023-01-11T06:49:11.112Z,2.50
2023-01-11T06:52:19.508Z,2.52
2023-01-11T06:55:35.087Z,2.50
2023-01-11T06:58:50.977Z,2.51
2023-01-11T07:02:00.948Z,2.52
2023-01-11T07:05:20.130Z,2.51
2023-01-11T07:18:22.948Z,2.61
2023-01-11T07:21:35.489Z,2.66
2023-01-11T07:24:39.369Z,2.71
2023-01-11T07:27:46.102Z,2.70
2023-01-11T07:31:00.215Z,2.72
2023-01-11T07:34:12.158Z,2.76
2023-01-11T07:37:28.879Z,2.82
2023-01-11T07:40:37.220Z,2.85
2023-01-11T07:43:42.040Z,2.90
2023-01-11T07:46:47.604Z,2.93
2023-01-11T07:50:01.241Z,3.03
2023-01-11T07:53:08.396Z,3.19
2023-01-11T07:56:13.875Z,3.31
2023-01-11T07:59:19.427Z,3.46
2023-01-11T08:06:09.413Z,3.80
2023-01-11T08:09:14.174Z,3.92
2023-01-11T08:12:38.451Z,3.97
2023-01-11T08:15:50.324Z,4.00
2023-01-11T08:19:02.796Z,3.98
2023-01-11T08:22:06.997Z,4.02
2023-01-11T08:25:20.411Z,4.02
2023-01-11T08:29:04.471Z,3.98
2023-01-11T08:32:07.961Z,3.94
2023-01-11T08:35:14.915Z,3.92
2023-01-11T08:38:24.243Z,3.91
2023-01-11T08:41:32.511Z,3.89
2023-01-11T08:44:39.885Z,3.98
2023-01-11T08:47:47.403Z,4.01
2023-01-11T08:50:58.771Z,4.04
2023-01-11T08:54:04.432Z,4.11
2023-01-11T08:57:10.481Z,4.15
2023-01-11T09:00:22.920Z,4.24
2023-01-11T09:03:29.981Z,4.30
2023-01-11T09:06:41.782Z,4.40
2023-01-11T09:09:50.227Z,4.62
2023-01-11T09:12:59.421Z,4.85
2023-01-11T09:16:07.108Z,5.01
2023-01-11T09:19:10.745Z,5.22
2023-01-11T09:22:13.899Z,5.33
2023-01-11T09:25:21.536Z,5.51
2023-01-11T09:28:24.725Z,5.78
2023-01-11T09:31:28.967Z,6.13
2023-01-11T09:34:34.976Z,6.34
2023-01-11T09:37:42.279Z,6.55
2023-01-11T09:41:11.686Z,6.76
2023-01-11T09:44:26.371Z,6.99
2023-01-11T09:48:21.394Z,7.21
2023-01-11T09:51:37.439Z,7.42
2023-01-11T09:54:58.872Z,7.67
2023-01-11T09:59:08.869Z,7.73
2023-01-11T10:07:39.562Z,7.91
2023-01-11T10:18:22.341Z,8.06
2023-01-11T10:19:37.715Z,8.27
2023-01-11T10:23:06.769Z,8.36
2023-01-11T10:26:34.250Z,8.35
2023-01-11T10:30:06.150Z,8.40
2023-01-11T10:34:10.701Z,8.40
2023-01-11T10:37:59.121Z,8.55
2023-01-11T10:41:16.078Z,8.60
2023-01-11T10:44:39.117Z,8.70
2023-01-11T10:48:36.224Z,8.51
2023-01-11T10:55:55.917Z,8.72
2023-01-11T10:59:51.053Z,8.79
2023-01-11T11:08:09.626Z,8.87
2023-01-11T11:12:10.435Z,8.80
2023-01-11T11:15:57.106Z,8.81
2023-01-11T11:19:11.654Z,8.82
2023-01-11T11:22:16.582Z,8.82
2023-01-11T11:25:43.393Z,8.80
2023-01-11T11:29:05.566Z,8.84
2023-01-11T11:49:20.362Z,9.01
2023-01-11T11:52:33.550Z,8.88
2023-01-11T11:55:39.988Z,9.03
2023-01-11T11:58:54.845Z,9.12
2023-01-11T12:02:16.558Z,9.18
2023-01-11T12:05:19.881Z,9.26
2023-01-11T12:08:29.260Z,9.24
2023-01-11T12:12:16.199Z,9.15
2023-01-11T12:15:20.966Z,9.15
2023-01-11T12:18:53.113Z,9.04
2023-01-11T12:22:17.321Z,9.07
2023-01-11T12:25:31.663Z,9.10
2023-01-11T12:29:05.521Z,9.12
2023-01-11T12:32:39.663Z,9.07
2023-01-11T12:36:12.901Z,9.19
2023-01-11T12:39:42.692Z,9.28
2023-01-11T12:43:33.998Z,9.19
2023-01-11T12:47:18.005Z,9.18
2023-01-11T12:50:32.593Z,9.21
2023-01-11T12:54:00.771Z,9.10
2023-01-11T12:57:27.741Z,8.88
2023-01-11T13:00:58.227Z,9.03
2023-01-11T13:04:43.334Z,9.16
2023-01-11T13:08:12.964Z,9.18
2023-01-11T13:12:06.260Z,9.28
2023-01-11T13:19:11.211Z,9.14
2023-01-11T13:22:25.957Z,9.16
2023-01-11T13:25:44.258Z,9.17
2023-01-11T13:29:01.558Z,9.09
2023-01-11T13:32:10.956Z,9.00
2023-01-11T13:35:39.174Z,8.95
2023-01-11T13:39:09.835Z,9.04
2023-01-11T13:42:54.715Z,8.93
2023-01-11T13:46:17.810Z,8.94
2023-01-11T13:49:49.910Z,8.80
2023-01-11T13:53:29.142Z,8.72
2023-01-11T13:57:25.699Z,8.59
2023-01-11T14:15:21.137Z,8.30
2023-01-11T14:19:24.332Z,8.21
2023-01-11T14:23:11.829Z,8.13
2023-01-11T14:26:49.415Z,8.02
2023-01-11T14:30:19.970Z,7.89
2023-01-11T14:33:51.169Z,7.83
2023-01-11T14:37:13.046Z,7.79
2023-01-11T14:40:20.067Z,7.66
2023-01-11T14:44:26.368Z,7.47
2023-01-11T14:48:03.017Z,7.32
2023-01-11T14:51:23.828Z,7.17
2023-01-11T14:55:04.056Z,7.09
2023-01-11T14:59:11.937Z,6.94
2023-01-11T15:13:40.791Z,6.58
2023-01-11T15:17:28.947Z,6.38
2023-01-11T15:21:37.853Z,6.19
2023-01-11T15:41:30.507Z,5.62
2023-01-11T16:08:31.382Z,4.65
2023-01-11T16:30:11.411Z,4.13
2023-01-11T16:37:42.805Z,4.06
2023-01-11T16:45:06.960Z,4.03
2023-01-11T16:48:17.191Z,3.86
2023-01-11T16:51:27.571Z,3.75
2023-01-11T16:58:30.402Z,3.46
2023-01-11T17:02:13.437Z,3.39
2023-01-11T17:05:46.511Z,3.46
2023-01-11T17:09:00.304Z,3.30
2023-01-11T17:12:22.849Z,3.18
2023-01-11T17:16:32.078Z,3.14
2023-01-11T17:20:04.889Z,3.11
2023-01-11T17:27:30.216Z,2.98
2023-01-11T17:30:47.533Z,2.90
2023-01-11T17:34:52.517Z,2.94
2023-01-11T17:38:05.535Z,2.98
2023-01-11T17:42:10.025Z,2.87
2023-01-11T17:45:36.427Z,2.80
2023-01-11T18:07:13.451Z,2.69
2023-01-11T18:10:29.084Z,2.57
2023-01-11T18:13:35.733Z,2.50
2023-01-11T18:17:17.985Z,2.49
2023-01-11T18:20:50.234Z,2.47
2023-01-11T18:24:49.540Z,2.49
2023-01-11T18:31:54.203Z,2.47
2023-01-11T18:35:01.480Z,2.48
2023-01-11T18:38:16.371Z,2.55
2023-01-11T18:41:52.211Z,2.51
2023-01-11T18:45:35.022Z,2.43
2023-01-11T18:48:39.978Z,2.26
2023-01-11T18:51:46.942Z,2.11
2023-01-11T18:55:05.075Z,2.02
2023-01-11T18:58:12.291Z,1.95
2023-01-11T19:01:26.693Z,2.01
2023-01-11T19:49:01.178Z,1.77
2023-01-11T19:52:14.638Z,1.55
2023-01-11T19:56:00.335Z,1.59
2023-01-11T20:07:16.449Z,1.60
2023-01-11T20:10:43.355Z,1.44
2023-01-11T20:14:57.591Z,1.42
2023-01-11T20:18:31.354Z,1.34
2023-01-11T20:25:59.329Z,1.30
2023-01-11T20:29:03.118Z,1.24
2023-01-11T20:32:34.957Z,1.26
2023-01-11T20:36:06.286Z,1.18
2023-01-11T20:39:33.253Z,1.07
2023-01-11T20:42:37.723Z,1.04
2023-01-11T20:46:05.021Z,0.98
2023-01-11T20:49:22.253Z,0.93
2023-01-11T20:52:29.296Z,0.86
2023-01-11T20:55:35.493Z,0.91
2023-01-11T20:58:40.548Z,0.96
2023-01-11T21:01:46.311Z,0.87
2023-01-11T21:04:51.948Z,1.01
2023-01-11T21:07:56.163Z,0.87
2023-01-11T21:11:08.546Z,0.81
2023-01-11T21:14:19.154Z,0.91
2023-01-11T21:17:26.437Z,0.77
2023-01-11T21:20:29.839Z,0.71
2023-01-11T21:23:36.872Z,0.74
2023-01-11T21:26:39.587Z,0.78
2023-01-11T21:29:45.517Z,0.68
2023-01-11T21:32:57.610Z,0.58
2023-01-11T21:36:44.248Z,0.60
2023-01-11T21:40:19.757Z,0.70
2023-01-11T21:43:27.562Z,0.81
2023-01-11T21:46:54.952Z,0.67
2023-01-11T21:49:58.405Z,0.53
2023-01-11T21:53:17.632Z,0.43
2023-01-11T21:56:23.858Z,0.40
2023-01-11T21:59:31.763Z,0.59
2023-01-11T22:02:34.691Z,0.47
2023-01-11T22:05:44.777Z,0.38
2023-01-11T22:09:06.008Z,0.32
2023-01-11T22:12:49.768Z,0.37
2023-01-11T22:16:21.553Z,0.36
2023-01-11T22:19:51.287Z,0.34
2023-01-11T22:23:13.612Z,0.39
2023-01-11T22:26:23.005Z,0.36
2023-01-11T22:29:25.918Z,0.30
2023-01-11T22:32:37.901Z,0.34
2023-01-11T22:36:05.798Z,0.35
2023-01-11T22:39:27.524Z,0.41
2023-01-11T22:42:41.128Z,0.40
2023-01-11T22:46:21.503Z,0.27
2023-01-11T22:49:36.506Z,0.23
2023-01-11T22:53:00.642Z,0.27
2023-01-11T22:56:54.693Z,0.25
2023-01-11T23:00:35.449Z,0.25
2023-01-11T23:03:52.074Z,0.24
2023-01-11T23:11:16.229Z,0.37
2023-01-11T23:14:41.473Z,0.29
2023-01-11T23:17:50.569Z,0.23
2023-01-11T23:21:06.298Z,0.16
2023-01-11T23:24:10.045Z,0.21
2023-01-11T23:31:31.698Z,0.17
2023-01-11T23:38:36.850Z,0.07
2023-01-11T23:41:58.417Z,0.10
2023-01-11T23:45:02.744Z,0.10
2023-01-11T23:48:18.863Z,0.18
2023-01-11T23:51:29.977Z,0.26
2023-01-11T23:54:51.586Z,0.41
2023-01-11T23:58:15.541Z,0.43
